sensor_id;sensor_type;location;lat;lon;timestamp;P1;durP1;ratioP1;P2;durP2;ratioP2
28724;SDS011;43472;48.980;9.646;2022-11-12T00:02:31;7.72;;;4.13;;
28724;SDS011;43472;48.980;9.646;2022-11-12T00:07:33;10.25;;;3.35;;
28724;SDS011;43472;48.980;9.646;2022-11-12T00:12:35;13.13;;;4.03;;
28724;SDS011;43472;48.980;9.646;2022-11-12T00:17:37;11.77;;;6.78;;
28724;SDS011;43472;48.980;9.646;2022-11-12T00:22:39;16.73;;;6.78;;
28724;SDS011;43472;48.980;9.646;2022-11-12T00:27:41;12.95;;;6.60;;
28724;SDS011;43472;48.980;9.646;2022-11-12T00:32:43;11.38;;;3.92;;
28724;SDS011;43472;48.980;9.646;2022-11-12T00:37:45;13.68;;;5.50;;
28724;SDS011;43472;48.980;9.646;2022-11-12T00:42:47;7.72;;;4.28;;
28724;SDS011;43472;48.980;9.646;2022-11-12T00:47:54;9.93;;;5.03;;
28724;SDS011;43472;48.980;9.646;2022-11-12T00:52:56;6.70;;;4.53;;
28724;SDS011;43472;48.980;9.646;2022-11-12T00:57:58;21.95;;;5.43;;
28724;SDS011;43472;48.980;9.646;2022-11-12T01:03:00;6.80;;;4.60;;
28724;SDS011;43472;48.980;9.646;2022-11-12T01:08:02;7.13;;;4.10;;
28724;SDS011;43472;48.980;9.646;2022-11-12T01:13:04;6.07;;;4.28;;
28724;SDS011;43472;48.980;9.646;2022-11-12T01:18:05;5.40;;;4.03;;
28724;SDS011;43472;48.980;9.646;2022-11-12T01:23:07;18.20;;;4.20;;
28724;SDS011;43472;48.980;9.646;2022-11-12T01:28:09;47.58;;;6.45;;
28724;SDS011;43472;48.980;9.646;2022-11-12T01:33:11;21.73;;;4.97;;
28724;SDS011;43472;48.980;9.646;2022-11-12T01:38:13;38.83;;;5.57;;
28724;SDS011;43472;48.980;9.646;2022-11-12T01:43:15;21.42;;;4.65;;
28724;SDS011;43472;48.980;9.646;2022-11-12T01:48:23;89.07;;;8.10;;
28724;SDS011;43472;48.980;9.646;2022-11-12T01:53:30;12.55;;;6.05;;
28724;SDS011;43472;48.980;9.646;2022-11-12T01:58:36;6.53;;;3.67;;
28724;SDS011;43472;48.980;9.646;2022-11-12T02:03:39;9.65;;;4.93;;
28724;SDS011;43472;48.980;9.646;2022-11-12T02:08:41;41.38;;;7.90;;
28724;SDS011;43472;48.980;9.646;2022-11-12T02:13:44;51.90;;;6.30;;
28724;SDS011;43472;48.980;9.646;2022-11-12T02:19:04;69.57;;;7.78;;
28724;SDS011;43472;48.980;9.646;2022-11-12T02:29:33;14.68;;;4.43;;
28724;SDS011;43472;48.980;9.646;2022-11-12T02:34:35;9.05;;;4.60;;
28724;SDS011;43472;48.980;9.646;2022-11-12T02:39:37;24.05;;;7.45;;
28724;SDS011;43472;48.980;9.646;2022-11-12T02:44:39;20.55;;;8.60;;
28724;SDS011;43472;48.980;9.646;2022-11-12T02:49:41;20.67;;;7.25;;
28724;SDS011;43472;48.980;9.646;2022-11-12T02:54:44;27.70;;;6.20;;
28724;SDS011;43472;48.980;9.646;2022-11-12T02:59:46;20.17;;;5.32;;
28724;SDS011;43472;48.980;9.646;2022-11-12T03:04:48;4.82;;;3.67;;
28724;SDS011;43472;48.980;9.646;2022-11-12T03:09:50;8.65;;;3.90;;
28724;SDS011;43472;48.980;9.646;2022-11-12T03:14:52;5.85;;;4.22;;
28724;SDS011;43472;48.980;9.646;2022-11-12T03:19:54;6.93;;;4.30;;
28724;SDS011;43472;48.980;9.646;2022-11-12T03:24:56;8.43;;;4.57;;
28724;SDS011;43472;48.980;9.646;2022-11-12T03:29:58;13.23;;;6.65;;
28724;SDS011;43472;48.980;9.646;2022-11-12T03:35:00;12.98;;;6.63;;
28724;SDS011;43472;48.980;9.646;2022-11-12T03:40:01;17.02;;;7.55;;
28724;SDS011;43472;48.980;9.646;2022-11-12T03:45:03;11.70;;;6.38;;
28724;SDS011;43472;48.980;9.646;2022-11-12T03:50:05;12.85;;;6.38;;
28724;SDS011;43472;48.980;9.646;2022-11-12T03:55:07;28.30;;;11.25;;
28724;SDS011;43472;48.980;9.646;2022-11-12T04:00:10;21.55;;;10.15;;
28724;SDS011;43472;48.980;9.646;2022-11-12T04:05:12;16.23;;;7.50;;
28724;SDS011;43472;48.980;9.646;2022-11-12T04:10:34;11.73;;;5.80;;
28724;SDS011;43472;48.980;9.646;2022-11-12T04:15:35;14.45;;;6.72;;
28724;SDS011;43472;48.980;9.646;2022-11-12T04:20:38;11.20;;;6.00;;
28724;SDS011;43472;48.980;9.646;2022-11-12T04:25:58;10.48;;;6.30;;
28724;SDS011;43472;48.980;9.646;2022-11-12T04:31:19;9.48;;;5.55;;
28724;SDS011;43472;48.980;9.646;2022-11-12T04:36:20;12.40;;;7.03;;
28724;SDS011;43472;48.980;9.646;2022-11-12T04:41:22;13.27;;;7.60;;
28724;SDS011;43472;48.980;9.646;2022-11-12T04:46:42;47.08;;;20.50;;
28724;SDS011;43472;48.980;9.646;2022-11-12T04:51:44;27.55;;;13.15;;
28724;SDS011;43472;48.980;9.646;2022-11-12T04:57:04;24.67;;;11.52;;
28724;SDS011;43472;48.980;9.646;2022-11-12T05:02:06;21.42;;;9.32;;
28724;SDS011;43472;48.980;9.646;2022-11-12T05:07:08;16.67;;;8.80;;
28724;SDS011;43472;48.980;9.646;2022-11-12T05:12:10;11.48;;;7.20;;
28724;SDS011;43472;48.980;9.646;2022-11-12T05:17:12;9.98;;;5.70;;
28724;SDS011;43472;48.980;9.646;2022-11-12T05:22:14;16.85;;;7.57;;
28724;SDS011;43472;48.980;9.646;2022-11-12T05:27:36;10.40;;;7.25;;
28724;SDS011;43472;48.980;9.646;2022-11-12T05:32:38;18.73;;;9.77;;
28724;SDS011;43472;48.980;9.646;2022-11-12T05:37:40;40.60;;;17.77;;
28724;SDS011;43472;48.980;9.646;2022-11-12T05:42:41;19.48;;;10.23;;
28724;SDS011;43472;48.980;9.646;2022-11-12T05:47:44;12.23;;;7.63;;
28724;SDS011;43472;48.980;9.646;2022-11-12T05:52:47;11.90;;;7.57;;
28724;SDS011;43472;48.980;9.646;2022-11-12T05:57:49;10.30;;;6.53;;
28724;SDS011;43472;48.980;9.646;2022-11-12T06:02:53;7.57;;;4.88;;
28724;SDS011;43472;48.980;9.646;2022-11-12T06:07:58;7.85;;;4.53;;
28724;SDS011;43472;48.980;9.646;2022-11-12T06:13:00;5.60;;;4.15;;
28724;SDS011;43472;48.980;9.646;2022-11-12T06:18:02;13.07;;;4.88;;
28724;SDS011;43472;48.980;9.646;2022-11-12T06:23:04;8.23;;;5.82;;
28724;SDS011;43472;48.980;9.646;2022-11-12T06:28:06;10.85;;;7.60;;
28724;SDS011;43472;48.980;9.646;2022-11-12T06:33:08;9.73;;;5.53;;
28724;SDS011;43472;48.980;9.646;2022-11-12T06:38:10;7.35;;;5.00;;
28724;SDS011;43472;48.980;9.646;2022-11-12T06:43:12;8.32;;;5.05;;
28724;SDS011;43472;48.980;9.646;2022-11-12T06:48:14;8.75;;;5.75;;
28724;SDS011;43472;48.980;9.646;2022-11-12T06:53:15;6.43;;;5.20;;
28724;SDS011;43472;48.980;9.646;2022-11-12T06:58:17;6.80;;;5.20;;
28724;SDS011;43472;48.980;9.646;2022-11-12T07:03:19;7.20;;;5.10;;
28724;SDS011;43472;48.980;9.646;2022-11-12T07:08:21;8.23;;;5.05;;
28724;SDS011;43472;48.980;9.646;2022-11-12T07:13:24;6.95;;;5.20;;
28724;SDS011;43472;48.980;9.646;2022-11-12T07:18:26;8.25;;;5.50;;
28724;SDS011;43472;48.980;9.646;2022-11-12T07:23:29;11.95;;;7.03;;
28724;SDS011;43472;48.980;9.646;2022-11-12T07:28:32;17.88;;;10.45;;
28724;SDS011;43472;48.980;9.646;2022-11-12T07:33:34;18.48;;;9.38;;
28724;SDS011;43472;48.980;9.646;2022-11-12T07:38:37;12.38;;;8.20;;
28724;SDS011;43472;48.980;9.646;2022-11-12T07:43:41;15.25;;;9.82;;
28724;SDS011;43472;48.980;9.646;2022-11-12T07:48:44;16.83;;;9.93;;
28724;SDS011;43472;48.980;9.646;2022-11-12T07:53:56;15.73;;;10.50;;
28724;SDS011;43472;48.980;9.646;2022-11-12T07:59:02;19.63;;;12.00;;
28724;SDS011;43472;48.980;9.646;2022-11-12T08:04:05;22.48;;;11.80;;
28724;SDS011;43472;48.980;9.646;2022-11-12T08:09:09;22.70;;;10.85;;
28724;SDS011;43472;48.980;9.646;2022-11-12T08:14:11;17.15;;;8.95;;
28724;SDS011;43472;48.980;9.646;2022-11-12T08:19:13;13.90;;;9.48;;
28724;SDS011;43472;48.980;9.646;2022-11-12T08:24:14;11.00;;;7.78;;
28724;SDS011;43472;48.980;9.646;2022-11-12T08:29:17;14.93;;;8.13;;
28724;SDS011;43472;48.980;9.646;2022-11-12T08:34:19;11.63;;;8.10;;
28724;SDS011;43472;48.980;9.646;2022-11-12T08:39:23;9.93;;;6.75;;
28724;SDS011;43472;48.980;9.646;2022-11-12T08:44:25;10.20;;;7.90;;
28724;SDS011;43472;48.980;9.646;2022-11-12T08:49:26;9.73;;;7.18;;
28724;SDS011;43472;48.980;9.646;2022-11-12T08:54:29;9.77;;;6.15;;
28724;SDS011;43472;48.980;9.646;2022-11-12T08:59:31;13.05;;;8.68;;
28724;SDS011;43472;48.980;9.646;2022-11-12T09:04:32;8.93;;;6.13;;
28724;SDS011;43472;48.980;9.646;2022-11-12T09:09:34;13.80;;;7.97;;
28724;SDS011;43472;48.980;9.646;2022-11-12T09:14:36;10.10;;;5.88;;
28724;SDS011;43472;48.980;9.646;2022-11-12T09:19:37;8.98;;;6.00;;
28724;SDS011;43472;48.980;9.646;2022-11-12T09:24:43;8.90;;;5.97;;
28724;SDS011;43472;48.980;9.646;2022-11-12T09:29:45;13.80;;;6.10;;
28724;SDS011;43472;48.980;9.646;2022-11-12T09:34:47;10.27;;;6.65;;
28724;SDS011;43472;48.980;9.646;2022-11-12T09:39:49;9.80;;;7.10;;
28724;SDS011;43472;48.980;9.646;2022-11-12T09:45:25;8.65;;;6.82;;
28724;SDS011;43472;48.980;9.646;2022-11-12T09:50:26;9.82;;;7.60;;
28724;SDS011;43472;48.980;9.646;2022-11-12T09:55:35;14.75;;;7.50;;
28724;SDS011;43472;48.980;9.646;2022-11-12T10:00:42;11.15;;;7.72;;
28724;SDS011;43472;48.980;9.646;2022-11-12T10:05:56;11.90;;;7.15;;
28724;SDS011;43472;48.980;9.646;2022-11-12T10:11:12;12.30;;;8.45;;
28724;SDS011;43472;48.980;9.646;2022-11-12T10:21:52;10.35;;;4.22;;
28724;SDS011;43472;48.980;9.646;2022-11-12T10:27:15;5.55;;;3.40;;
28724;SDS011;43472;48.980;9.646;2022-11-12T10:32:20;9.70;;;3.53;;
28724;SDS011;43472;48.980;9.646;2022-11-12T10:42:23;4.70;;;3.20;;
28724;SDS011;43472;48.980;9.646;2022-11-12T10:47:43;5.95;;;3.10;;
28724;SDS011;43472;48.980;9.646;2022-11-12T11:03:21;7.68;;;2.53;;
28724;SDS011;43472;48.980;9.646;2022-11-12T11:08:32;5.97;;;2.50;;
28724;SDS011;43472;48.980;9.646;2022-11-12T11:13:42;6.22;;;2.63;;
28724;SDS011;43472;48.980;9.646;2022-11-12T11:18:46;4.68;;;2.72;;
28724;SDS011;43472;48.980;9.646;2022-11-12T11:24:17;5.28;;;2.33;;
28724;SDS011;43472;48.980;9.646;2022-11-12T11:40:28;2.78;;;2.10;;
28724;SDS011;43472;48.980;9.646;2022-11-12T11:45:48;2.22;;;1.92;;
28724;SDS011;43472;48.980;9.646;2022-11-12T11:50:58;2.92;;;2.40;;
28724;SDS011;43472;48.980;9.646;2022-11-12T11:56:13;2.40;;;1.95;;
28724;SDS011;43472;48.980;9.646;2022-11-12T12:01:24;5.72;;;2.05;;
28724;SDS011;43472;48.980;9.646;2022-11-12T12:06:29;4.03;;;1.92;;
28724;SDS011;43472;48.980;9.646;2022-11-12T12:11:57;3.55;;;2.97;;
28724;SDS011;43472;48.980;9.646;2022-11-12T12:22:48;4.40;;;1.80;;
28724;SDS011;43472;48.980;9.646;2022-11-12T12:33:29;3.88;;;2.22;;
28724;SDS011;43472;48.980;9.646;2022-11-12T12:43:51;2.88;;;2.17;;
28724;SDS011;43472;48.980;9.646;2022-11-12T12:49:04;2.35;;;2.00;;
28724;SDS011;43472;48.980;9.646;2022-11-12T12:59:37;2.90;;;2.30;;
28724;SDS011;43472;48.980;9.646;2022-11-12T13:09:52;2.70;;;2.15;;
28724;SDS011;43472;48.980;9.646;2022-11-12T13:15:48;5.68;;;1.90;;
28724;SDS011;43472;48.980;9.646;2022-11-12T13:37:27;2.67;;;1.90;;
28724;SDS011;43472;48.980;9.646;2022-11-12T13:42:29;2.88;;;1.70;;
28724;SDS011;43472;48.980;9.646;2022-11-12T13:47:49;2.88;;;2.00;;
28724;SDS011;43472;48.980;9.646;2022-11-12T13:52:52;3.03;;;1.70;;
28724;SDS011;43472;48.980;9.646;2022-11-12T13:57:54;1.77;;;1.60;;
28724;SDS011;43472;48.980;9.646;2022-11-12T14:02:57;2.75;;;1.90;;
28724;SDS011;43472;48.980;9.646;2022-11-12T14:08:06;2.92;;;2.10;;
28724;SDS011;43472;48.980;9.646;2022-11-12T14:13:21;3.38;;;1.63;;
28724;SDS011;43472;48.980;9.646;2022-11-12T14:18:51;4.55;;;1.88;;
28724;SDS011;43472;48.980;9.646;2022-11-12T14:23:57;4.72;;;2.10;;
28724;SDS011;43472;48.980;9.646;2022-11-12T14:29:02;5.68;;;1.83;;
28724;SDS011;43472;48.980;9.646;2022-11-12T14:39:27;3.88;;;1.90;;
28724;SDS011;43472;48.980;9.646;2022-11-12T14:44:33;3.22;;;2.10;;
28724;SDS011;43472;48.980;9.646;2022-11-12T14:49:41;6.15;;;2.25;;
28724;SDS011;43472;48.980;9.646;2022-11-12T14:54:46;3.03;;;2.10;;
28724;SDS011;43472;48.980;9.646;2022-11-12T14:59:51;5.72;;;3.85;;
28724;SDS011;43472;48.980;9.646;2022-11-12T15:04:57;2.53;;;1.60;;
28724;SDS011;43472;48.980;9.646;2022-11-12T15:15:51;6.32;;;1.85;;
28724;SDS011;43472;48.980;9.646;2022-11-12T15:21:21;3.33;;;1.90;;
28724;SDS011;43472;48.980;9.646;2022-11-12T15:26:35;3.40;;;1.95;;
28724;SDS011;43472;48.980;9.646;2022-11-12T15:31:52;3.92;;;2.17;;
28724;SDS011;43472;48.980;9.646;2022-11-12T15:36:58;2.72;;;1.75;;
28724;SDS011;43472;48.980;9.646;2022-11-12T15:42:05;5.00;;;1.80;;
28724;SDS011;43472;48.980;9.646;2022-11-12T15:47:33;2.67;;;1.73;;
28724;SDS011;43472;48.980;9.646;2022-11-12T15:52:35;3.63;;;2.65;;
28724;SDS011;43472;48.980;9.646;2022-11-12T15:57:40;4.30;;;2.30;;
28724;SDS011;43472;48.980;9.646;2022-11-12T16:02:54;8.13;;;3.30;;
28724;SDS011;43472;48.980;9.646;2022-11-12T16:07:59;4.25;;;3.33;;
28724;SDS011;43472;48.980;9.646;2022-11-12T16:13:01;4.40;;;3.45;;
28724;SDS011;43472;48.980;9.646;2022-11-12T16:18:07;8.23;;;3.95;;
28724;SDS011;43472;48.980;9.646;2022-11-12T16:23:12;4.88;;;3.13;;
28724;SDS011;43472;48.980;9.646;2022-11-12T16:28:15;4.82;;;3.22;;
28724;SDS011;43472;48.980;9.646;2022-11-12T16:33:17;11.70;;;7.18;;
28724;SDS011;43472;48.980;9.646;2022-11-12T16:38:19;9.73;;;6.13;;
28724;SDS011;43472;48.980;9.646;2022-11-12T16:43:21;4.60;;;3.22;;
28724;SDS011;43472;48.980;9.646;2022-11-12T16:48:23;7.40;;;3.30;;
28724;SDS011;43472;48.980;9.646;2022-11-12T16:53:25;9.25;;;4.85;;
28724;SDS011;43472;48.980;9.646;2022-11-12T16:58:27;27.23;;;16.88;;
28724;SDS011;43472;48.980;9.646;2022-11-12T17:03:29;21.77;;;14.98;;
28724;SDS011;43472;48.980;9.646;2022-11-12T17:08:31;14.38;;;8.80;;
28724;SDS011;43472;48.980;9.646;2022-11-12T17:13:37;10.40;;;6.45;;
28724;SDS011;43472;48.980;9.646;2022-11-12T17:18:39;13.95;;;8.38;;
28724;SDS011;43472;48.980;9.646;2022-11-12T17:23:41;18.67;;;13.82;;
28724;SDS011;43472;48.980;9.646;2022-11-12T17:28:43;22.70;;;14.43;;
28724;SDS011;43472;48.980;9.646;2022-11-12T17:33:46;15.25;;;7.15;;
28724;SDS011;43472;48.980;9.646;2022-11-12T17:38:53;14.05;;;9.13;;
28724;SDS011;43472;48.980;9.646;2022-11-12T17:43:59;20.10;;;11.75;;
28724;SDS011;43472;48.980;9.646;2022-11-12T17:49:01;26.15;;;15.57;;
28724;SDS011;43472;48.980;9.646;2022-11-12T17:54:03;21.38;;;11.07;;
28724;SDS011;43472;48.980;9.646;2022-11-12T17:59:06;14.80;;;9.20;;
28724;SDS011;43472;48.980;9.646;2022-11-12T18:04:08;14.15;;;7.07;;
28724;SDS011;43472;48.980;9.646;2022-11-12T18:09:13;10.77;;;4.72;;
28724;SDS011;43472;48.980;9.646;2022-11-12T18:14:16;19.60;;;11.10;;
28724;SDS011;43472;48.980;9.646;2022-11-12T18:19:18;16.95;;;11.63;;
28724;SDS011;43472;48.980;9.646;2022-11-12T18:24:20;19.42;;;13.65;;
28724;SDS011;43472;48.980;9.646;2022-11-12T18:29:21;15.15;;;10.43;;
28724;SDS011;43472;48.980;9.646;2022-11-12T18:34:23;18.50;;;12.30;;
28724;SDS011;43472;48.980;9.646;2022-11-12T18:39:25;24.40;;;15.70;;
28724;SDS011;43472;48.980;9.646;2022-11-12T18:44:27;10.05;;;7.75;;
28724;SDS011;43472;48.980;9.646;2022-11-12T18:49:29;9.23;;;5.15;;
28724;SDS011;43472;48.980;9.646;2022-11-12T18:54:31;12.68;;;8.77;;
28724;SDS011;43472;48.980;9.646;2022-11-12T18:59:33;22.38;;;14.13;;
28724;SDS011;43472;48.980;9.646;2022-11-12T19:04:35;50.97;;;29.70;;
28724;SDS011;43472;48.980;9.646;2022-11-12T19:09:44;62.92;;;31.17;;
28724;SDS011;43472;48.980;9.646;2022-11-12T19:14:45;37.75;;;21.90;;
28724;SDS011;43472;48.980;9.646;2022-11-12T19:19:47;28.55;;;15.52;;
28724;SDS011;43472;48.980;9.646;2022-11-12T19:24:49;37.05;;;20.60;;
28724;SDS011;43472;48.980;9.646;2022-11-12T19:29:51;36.67;;;18.13;;
28724;SDS011;43472;48.980;9.646;2022-11-12T19:34:53;21.15;;;11.52;;
28724;SDS011;43472;48.980;9.646;2022-11-12T19:39:54;19.25;;;11.00;;
28724;SDS011;43472;48.980;9.646;2022-11-12T19:44:56;18.58;;;10.77;;
28724;SDS011;43472;48.980;9.646;2022-11-12T19:49:58;21.70;;;10.13;;
28724;SDS011;43472;48.980;9.646;2022-11-12T19:55:00;14.75;;;7.55;;
28724;SDS011;43472;48.980;9.646;2022-11-12T20:00:02;7.07;;;5.35;;
28724;SDS011;43472;48.980;9.646;2022-11-12T20:05:04;7.68;;;5.47;;
28724;SDS011;43472;48.980;9.646;2022-11-12T20:10:06;21.98;;;13.15;;
28724;SDS011;43472;48.980;9.646;2022-11-12T20:15:08;10.10;;;5.95;;
28724;SDS011;43472;48.980;9.646;2022-11-12T20:20:10;7.88;;;4.90;;
28724;SDS011;43472;48.980;9.646;2022-11-12T20:25:12;7.28;;;5.22;;
28724;SDS011;43472;48.980;9.646;2022-11-12T20:30:14;14.23;;;7.78;;
28724;SDS011;43472;48.980;9.646;2022-11-12T20:35:16;33.92;;;17.58;;
28724;SDS011;43472;48.980;9.646;2022-11-12T20:40:22;18.40;;;10.50;;
28724;SDS011;43472;48.980;9.646;2022-11-12T20:45:24;25.55;;;11.45;;
28724;SDS011;43472;48.980;9.646;2022-11-12T20:50:27;32.95;;;16.30;;
28724;SDS011;43472;48.980;9.646;2022-11-12T20:55:29;42.55;;;17.60;;
28724;SDS011;43472;48.980;9.646;2022-11-12T21:00:32;24.80;;;11.95;;
28724;SDS011;43472;48.980;9.646;2022-11-12T21:05:34;25.85;;;13.55;;
28724;SDS011;43472;48.980;9.646;2022-11-12T21:10:36;26.00;;;9.85;;
28724;SDS011;43472;48.980;9.646;2022-11-12T21:15:38;42.70;;;11.27;;
28724;SDS011;43472;48.980;9.646;2022-11-12T21:20:40;15.10;;;9.40;;
28724;SDS011;43472;48.980;9.646;2022-11-12T21:25:42;20.63;;;10.55;;
28724;SDS011;43472;48.980;9.646;2022-11-12T21:30:44;20.95;;;8.82;;
28724;SDS011;43472;48.980;9.646;2022-11-12T21:35:52;24.45;;;11.30;;
28724;SDS011;43472;48.980;9.646;2022-11-12T21:41:28;33.00;;;12.00;;
28724;SDS011;43472;48.980;9.646;2022-11-12T21:46:24;20.42;;;9.40;;
28724;SDS011;43472;48.980;9.646;2022-11-12T21:51:28;38.83;;;15.38;;
28724;SDS011;43472;48.980;9.646;2022-11-12T21:56:31;39.78;;;20.88;;
28724;SDS011;43472;48.980;9.646;2022-11-12T22:01:34;46.20;;;20.75;;
28724;SDS011;43472;48.980;9.646;2022-11-12T22:06:36;30.00;;;15.27;;
28724;SDS011;43472;48.980;9.646;2022-11-12T22:11:38;39.00;;;15.60;;
28724;SDS011;43472;48.980;9.646;2022-11-12T22:16:40;23.15;;;11.52;;
28724;SDS011;43472;48.980;9.646;2022-11-12T22:21:42;20.95;;;11.05;;
28724;SDS011;43472;48.980;9.646;2022-11-12T22:26:43;36.55;;;10.65;;
28724;SDS011;43472;48.980;9.646;2022-11-12T22:31:45;18.95;;;11.25;;
28724;SDS011;43472;48.980;9.646;2022-11-12T22:36:47;23.52;;;12.35;;
28724;SDS011;43472;48.980;9.646;2022-11-12T22:41:48;20.30;;;11.18;;
28724;SDS011;43472;48.980;9.646;2022-11-12T22:46:50;32.05;;;12.55;;
28724;SDS011;43472;48.980;9.646;2022-11-12T22:51:52;21.55;;;12.43;;
28724;SDS011;43472;48.980;9.646;2022-11-12T22:56:54;17.10;;;9.57;;
28724;SDS011;43472;48.980;9.646;2022-11-12T23:01:56;14.18;;;8.38;;
28724;SDS011;43472;48.980;9.646;2022-11-12T23:06:58;10.95;;;7.65;;
28724;SDS011;43472;48.980;9.646;2022-11-12T23:12:00;11.23;;;7.78;;
28724;SDS011;43472;48.980;9.646;2022-11-12T23:17:02;9.32;;;7.07;;
28724;SDS011;43472;48.980;9.646;2022-11-12T23:22:04;17.08;;;8.55;;
28724;SDS011;43472;48.980;9.646;2022-11-12T23:27:08;14.68;;;9.10;;
28724;SDS011;43472;48.980;9.646;2022-11-12T23:32:10;22.70;;;10.20;;
28724;SDS011;43472;48.980;9.646;2022-11-12T23:37:12;11.93;;;7.55;;
28724;SDS011;43472;48.980;9.646;2022-11-12T23:42:14;10.70;;;7.07;;
28724;SDS011;43472;48.980;9.646;2022-11-12T23:47:16;10.80;;;6.78;;
28724;SDS011;43472;48.980;9.646;2022-11-12T23:52:17;10.93;;;7.75;;
28724;SDS011;43472;48.980;9.646;2022-11-12T23:57:19;11.82;;;7.18;;
